Dr.Michael Heilos
Wetterdaten: aktuell Dienstag, 18.02.2020 13:10
Datum Zeit Temp. A. Feuchte A. Luftdruck Regen Wind Richtung Richtung Sonnenschein Solar Windchill Windben
18.02.2020 13:10 8,0 C 52 % 1022,0 hPa 0,0 l/m 12,3 km/h (3 Bft) W-SW 238 10 min 316 W/m 4,0 C 25,7 km/h (4 Bft)
18.02.2020 13:00 7,7 C 53 % 1022,1 hPa 0,0 l/m 11,0 km/h (2 Bft) SW 214 10 min 396 W/m 4,4 C 24,1 km/h (4 Bft)
18.02.2020 12:50 7,6 C 52 % 1022,4 hPa 0,0 l/m 13,7 km/h (3 Bft) S-SW 196 10 min 225 W/m 2,9 C 29,0 km/h (5 Bft)
18.02.2020 12:40 7,7 C 52 % 1022,4 hPa 0,0 l/m 14,3 km/h (3 Bft) SW 221 0 min 97 W/m 2,7 C 29,0 km/h (5 Bft)
18.02.2020 12:30 7,7 C 51 % 1022,2 hPa 0,0 l/m 16,9 km/h (3 Bft) SW 217 0 min 118 W/m 1,5 C 33,8 km/h (5 Bft)
18.02.2020 12:20 7,9 C 51 % 1022,4 hPa 0,0 l/m 17,8 km/h (3 Bft) W-SW 252 10 min 260 W/m 1,4 C 41,8 km/h (6 Bft)
18.02.2020 12:10 7,8 C 51 % 1022,5 hPa 0,0 l/m 17,5 km/h (3 Bft) W-SW 243 10 min 190 W/m 1,4 C 35,4 km/h (5 Bft)
18.02.2020 12:00 7,3 C 53 % 1022,5 hPa 0,0 l/m 14,0 km/h (3 Bft) SW 231 10 min 181 W/m 2,3 C 27,4 km/h (4 Bft)
18.02.2020 11:50 7,2 C 52 % 1022,5 hPa 0,0 l/m 17,1 km/h (3 Bft) W 275 0 min 109 W/m 0,8 C 32,2 km/h (5 Bft)
18.02.2020 11:40 7,0 C 53 % 1022,6 hPa 0,0 l/m 15,0 km/h (3 Bft) W 263 10 min 185 W/m 1,5 C 30,6 km/h (5 Bft)
18.02.2020 11:30 7,0 C 54 % 1022,7 hPa 0,0 l/m 14,2 km/h (3 Bft) W-SW 244 0 min 132 W/m 1,9 C 33,8 km/h (5 Bft)
18.02.2020 11:20 7,0 C 54 % 1022,5 hPa 0,0 l/m 14,0 km/h (3 Bft) SW 217 10 min 183 W/m 2,0 C 32,2 km/h (5 Bft)
18.02.2020 11:10 6,9 C 53 % 1022,5 hPa 0,0 l/m 15,0 km/h (3 Bft) W-SW 248 0 min 104 W/m 1,4 C 30,6 km/h (5 Bft)
18.02.2020 11:00 6,8 C 54 % 1022,5 hPa 0,0 l/m 16,1 km/h (3 Bft) SW 217 0 min 104 W/m 0,7 C 40,2 km/h (6 Bft)
18.02.2020 10:50 6,6 C 53 % 1022,5 hPa 0,0 l/m 15,0 km/h (3 Bft) SW 228 0 min 118 W/m 1,0 C 32,2 km/h (5 Bft)
18.02.2020 10:40 6,7 C 55 % 1022,5 hPa 0,0 l/m 14,8 km/h (3 Bft) SW 219 0 min 93 W/m 1,2 C 33,8 km/h (5 Bft)
18.02.2020 10:30 6,6 C 54 % 1022,4 hPa 0,0 l/m 14,3 km/h (3 Bft) W-NW 300 0 min 139 W/m 1,4 C 32,2 km/h (5 Bft)
18.02.2020 10:20 6,5 C 54 % 1022,4 hPa 0,0 l/m 15,4 km/h (3 Bft) SW 234 0 min 141 W/m 0,7 C 30,6 km/h (5 Bft)
18.02.2020 10:10 6,4 C 54 % 1022,1 hPa 0,0 l/m 14,9 km/h (3 Bft) SW 233 0 min 116 W/m 0,8 C 30,6 km/h (5 Bft)
18.02.2020 10:00 6,3 C 54 % 1022,2 hPa 0,0 l/m 16,2 km/h (3 Bft) SW 229 0 min 109 W/m 0,1 C 30,6 km/h (5 Bft)
18.02.2020 09:50 6,2 C 55 % 1022,2 hPa 0,0 l/m 15,8 km/h (3 Bft) SW 222 0 min 90 W/m 0,1 C 35,4 km/h (5 Bft)
18.02.2020 09:40 6,1 C 55 % 1022,0 hPa 0,0 l/m 14,5 km/h (3 Bft) SW 225 0 min 98 W/m 0,7 C 27,4 km/h (4 Bft)
18.02.2020 09:30 5,9 C 55 % 1022,0 hPa 0,0 l/m 16,2 km/h (3 Bft) SW 233 0 min 86 W/m -0,4 C 35,4 km/h (5 Bft)
18.02.2020 09:20 5,7 C 56 % 1022,0 hPa 0,0 l/m 16,0 km/h (3 Bft) W-SW 246 0 min 58 W/m -0,6 C 29,0 km/h (5 Bft)
18.02.2020 09:10 5,8 C 56 % 1022,0 hPa 0,0 l/m 12,1 km/h (2 Bft) NW 307 0 min 51 W/m 1,6 C 29,0 km/h (5 Bft)
18.02.2020 09:00 5,8 C 57 % 1022,0 hPa 0,0 l/m 11,3 km/h (2 Bft) W-SW 241 0 min 49 W/m 2,1 C 25,7 km/h (4 Bft)
18.02.2020 08:50 5,7 C 57 % 1021,7 hPa 0,0 l/m 13,4 km/h (3 Bft) SW 222 0 min 53 W/m 0,8 C 30,6 km/h (5 Bft)
18.02.2020 08:40 5,6 C 57 % 1021,6 hPa 0,0 l/m 11,6 km/h (2 Bft) W-SW 242 0 min 42 W/m 1,7 C 22,5 km/h (4 Bft)
18.02.2020 08:30 5,7 C 57 % 1021,4 hPa 0,0 l/m 14,4 km/h (3 Bft) W 261 0 min 26 W/m 0,2 C 33,8 km/h (5 Bft)
18.02.2020 08:20 5,7 C 56 % 1021,4 hPa 0,0 l/m 12,5 km/h (3 Bft) W-SW 239 0 min 12 W/m 1,3 C 27,4 km/h (4 Bft)
18.02.2020 08:10 5,8 C 55 % 1021,2 hPa 0,0 l/m 15,3 km/h (3 Bft) SW 225 0 min 19 W/m -0,1 C 27,4 km/h (4 Bft)
18.02.2020 08:00 5,8 C 55 % 1020,9 hPa 0,0 l/m 16,6 km/h (3 Bft) W-SW 254 0 min 18 W/m -0,7 C 33,8 km/h (5 Bft)
18.02.2020 07:50 5,8 C 55 % 1020,7 hPa 0,0 l/m 17,1 km/h (3 Bft) SW 221 0 min 7 W/m -0,9 C 32,2 km/h (5 Bft)
18.02.2020 07:40 5,8 C 56 % 1020,5 hPa 0,0 l/m 15,6 km/h (3 Bft) SW 229 0 min 0 W/m -0,2 C 30,6 km/h (5 Bft)
18.02.2020 07:30 5,7 C 55 % 1020,4 hPa 0,0 l/m 18,7 km/h (3 Bft) S-SW 199 0 min 0 W/m -1,8 C 38,6 km/h (5 Bft)
18.02.2020 07:20 5,8 C 56 % 1020,1 hPa 0,0 l/m 16,0 km/h (3 Bft) SW 234 0 min 0 W/m -0,4 C 37,0 km/h (5 Bft)
18.02.2020 07:10 5,9 C 56 % 1020,0 hPa 0,0 l/m 16,6 km/h (3 Bft) SW 214 0 min 0 W/m -0,6 C 29,0 km/h (5 Bft)
18.02.2020 07:00 6,0 C 57 % 1020,0 hPa 0,0 l/m 15,1 km/h (3 Bft) SW 229 0 min 0 W/m 0,2 C 32,2 km/h (5 Bft)
18.02.2020 06:50 6,1 C 57 % 1019,8 hPa 0,0 l/m 17,5 km/h (3 Bft) W 259 0 min 0 W/m -0,7 C 41,8 km/h (6 Bft)
18.02.2020 06:40 6,2 C 57 % 1019,7 hPa 0,0 l/m 17,1 km/h (3 Bft) W-SW 247 0 min 0 W/m -0,4 C 30,6 km/h (5 Bft)
18.02.2020 06:30 6,2 C 58 % 1019,3 hPa 0,0 l/m 12,8 km/h (3 Bft) SW 218 0 min 0 W/m 1,7 C 27,4 km/h (4 Bft)
18.02.2020 06:20 6,2 C 58 % 1019,5 hPa 0,0 l/m 14,4 km/h (3 Bft) SW 226 0 min 0 W/m 0,8 C 33,8 km/h (5 Bft)
18.02.2020 06:10 6,2 C 58 % 1019,3 hPa 0,0 l/m 14,0 km/h (3 Bft) W-SW 242 0 min 0 W/m 1,0 C 27,4 km/h (4 Bft)
18.02.2020 06:00 6,2 C 58 % 1019,2 hPa 0,0 l/m 14,8 km/h (3 Bft) SW 228 0 min 0 W/m 0,6 C 32,2 km/h (5 Bft)
18.02.2020 05:50 6,3 C 58 % 1019,1 hPa 0,0 l/m 15,4 km/h (3 Bft) S-SW 192 0 min 0 W/m 0,5 C 32,2 km/h (5 Bft)
18.02.2020 05:40 6,1 C 59 % 1019,2 hPa 0,0 l/m 12,0 km/h (2 Bft) SW 218 0 min 0 W/m 2,0 C 25,7 km/h (4 Bft)
18.02.2020 05:30 6,1 C 59 % 1019,0 hPa 0,0 l/m 11,4 km/h (2 Bft) W-SW 242 0 min 0 W/m 2,4 C 22,5 km/h (4 Bft)
18.02.2020 05:20 6,1 C 59 % 1018,8 hPa 0,0 l/m 13,3 km/h (3 Bft) SW 225 0 min 0 W/m 1,3 C 27,4 km/h (4 Bft)
18.02.2020 05:10 6,2 C 59 % 1018,6 hPa 0,0 l/m 13,7 km/h (3 Bft) S-SW 198 0 min 0 W/m 1,2 C 25,7 km/h (4 Bft)
18.02.2020 05:00 6,4 C 59 % 1018,5 hPa 0,0 l/m 13,5 km/h (3 Bft) W-SW 244 0 min 0 W/m 1,5 C 40,2 km/h (6 Bft)
18.02.2020 04:50 6,3 C 59 % 1018,5 hPa 0,0 l/m 11,8 km/h (2 Bft) W-SW 238 0 min 0 W/m 2,4 C 25,7 km/h (4 Bft)
18.02.2020 04:40 6,3 C 60 % 1018,3 hPa 0,0 l/m 12,6 km/h (3 Bft) SW 234 0 min 0 W/m 1,9 C 24,1 km/h (4 Bft)
18.02.2020 04:30 6,3 C 61 % 1018,2 hPa 0,0 l/m 12,9 km/h (3 Bft) SW 231 0 min 0 W/m 1,7 C 33,8 km/h (5 Bft)
18.02.2020 04:20 6,4 C 60 % 1018,4 hPa 0,0 l/m 16,4 km/h (3 Bft) W 275 0 min 0 W/m 0,1 C 38,6 km/h (5 Bft)
18.02.2020 04:10 6,5 C 60 % 1018,2 hPa 0,0 l/m 12,8 km/h (3 Bft) W 263 0 min 0 W/m 2,0 C 27,4 km/h (4 Bft)
18.02.2020 04:00 6,4 C 60 % 1018,0 hPa 0,0 l/m 12,3 km/h (3 Bft) W-SW 245 0 min 0 W/m 2,2 C 22,5 km/h (4 Bft)
18.02.2020 03:50 6,3 C 60 % 1017,7 hPa 0,0 l/m 13,3 km/h (3 Bft) W-SW 239 0 min 0 W/m 1,5 C 24,1 km/h (4 Bft)
18.02.2020 03:40 6,3 C 61 % 1017,7 hPa 0,0 l/m 12,6 km/h (3 Bft) SW 226 0 min 0 W/m 1,9 C 24,1 km/h (4 Bft)
18.02.2020 03:30 6,5 C 61 % 1017,6 hPa 0,0 l/m 13,3 km/h (3 Bft) SW 236 0 min 0 W/m 1,8 C 29,0 km/h (5 Bft)
18.02.2020 03:20 6,5 C 62 % 1017,6 hPa 0,0 l/m 12,9 km/h (3 Bft) SW 236 0 min 0 W/m 2,0 C 29,0 km/h (5 Bft)
18.02.2020 03:10 6,3 C 63 % 1017,7 hPa 0,0 l/m 12,0 km/h (2 Bft) S-SW 194 0 min 0 W/m 2,3 C 22,5 km/h (4 Bft)
18.02.2020 03:00 6,2 C 65 % 1017,7 hPa 0,0 l/m 12,3 km/h (3 Bft) W-SW 255 0 min 0 W/m 2,0 C 25,7 km/h (4 Bft)
18.02.2020 02:50 5,9 C 66 % 1017,7 hPa 0,2 l/m 12,6 km/h (3 Bft) W-NW 298 0 min 0 W/m 1,4 C 33,8 km/h (5 Bft)
18.02.2020 02:40 5,6 C 66 % 1017,7 hPa 0,0 l/m 9,7 km/h (2 Bft) W-SW 240 0 min 0 W/m 2,9 C 22,5 km/h (4 Bft)
18.02.2020 02:30 5,0 C 67 % 1017,5 hPa 0,4 l/m 8,2 km/h (2 Bft) W-SW 247 0 min 0 W/m 3,4 C 22,5 km/h (4 Bft)
18.02.2020 02:20 4,8 C 65 % 1017,7 hPa 1,0 l/m 5,9 km/h (2 Bft) W 269 0 min 0 W/m 4,8 C 17,7 km/h (3 Bft)
18.02.2020 02:10 5,1 C 63 % 1017,5 hPa 0,2 l/m 8,2 km/h (2 Bft) W-SW 254 0 min 0 W/m 3,5 C 24,1 km/h (4 Bft)
18.02.2020 02:00 6,3 C 60 % 1017,8 hPa 0,0 l/m 9,8 km/h (2 Bft) N 349 0 min 0 W/m 3,6 C 25,7 km/h (4 Bft)
18.02.2020 01:50 6,9 C 62 % 1017,2 hPa 0,0 l/m 12,1 km/h (2 Bft) W-SW 242 0 min 0 W/m 2,9 C 24,1 km/h (4 Bft)
18.02.2020 01:40 7,1 C 61 % 1017,0 hPa 0,0 l/m 14,5 km/h (3 Bft) S-SW 211 0 min 0 W/m 1,9 C 24,1 km/h (4 Bft)
18.02.2020 01:30 7,3 C 60 % 1016,8 hPa 0,0 l/m 14,3 km/h (3 Bft) SW 222 0 min 0 W/m 2,2 C 32,2 km/h (5 Bft)
18.02.2020 01:20 7,3 C 59 % 1016,7 hPa 0,0 l/m 15,5 km/h (3 Bft) SW 226 0 min 0 W/m 1,6 C 29,0 km/h (5 Bft)
18.02.2020 01:10 7,2 C 59 % 1016,9 hPa 0,0 l/m 16,2 km/h (3 Bft) S-SW 213 0 min 0 W/m 1,2 C 40,2 km/h (6 Bft)
18.02.2020 01:00 7,2 C 60 % 1016,8 hPa 0,0 l/m 14,2 km/h (3 Bft) S-SW 213 0 min 0 W/m 2,1 C 27,4 km/h (4 Bft)
18.02.2020 00:50 7,2 C 59 % 1016,9 hPa 0,0 l/m 14,8 km/h (3 Bft) W-SW 239 0 min 0 W/m 1,8 C 33,8 km/h (5 Bft)
18.02.2020 00:40 7,1 C 59 % 1016,6 hPa 0,0 l/m 14,1 km/h (3 Bft) W-SW 246 0 min 0 W/m 2,1 C 29,0 km/h (5 Bft)
18.02.2020 00:30 6,9 C 60 % 1016,6 hPa 0,0 l/m 11,3 km/h (2 Bft) W-SW 250 0 min 0 W/m 3,4 C 29,0 km/h (5 Bft)
18.02.2020 00:20 7,0 C 60 % 1016,6 hPa 0,0 l/m 12,6 km/h (3 Bft) W-SW 245 0 min 0 W/m 2,7 C 24,1 km/h (4 Bft)
18.02.2020 00:10 6,9 C 60 % 1016,6 hPa 0,0 l/m 11,2 km/h (2 Bft) SW 234 0 min 0 W/m 3,4 C 24,1 km/h (4 Bft)
18.02.2020 00:00 6,9 C 60 % 1016,4 hPa 0,0 l/m 12,4 km/h (3 Bft) SW 233 0 min 0 W/m 2,7 C 30,6 km/h (5 Bft)
17.02.2020 23:50 6,8 C 61 % 1016,3 hPa 0,0 l/m 10,0 km/h (2 Bft) SW 233 0 min 0 W/m 4,1 C 25,7 km/h (4 Bft)
17.02.2020 23:40 6,9 C 61 % 1016,1 hPa 0,0 l/m 15,2 km/h (3 Bft) W-SW 255 0 min 0 W/m 1,3 C 40,2 km/h (6 Bft)
17.02.2020 23:30 7,0 C 59 % 1016,1 hPa 0,0 l/m 13,0 km/h (3 Bft) S-SW 209 0 min 0 W/m 2,5 C 29,0 km/h (5 Bft)
17.02.2020 23:20 6,9 C 60 % 1015,8 hPa 0,0 l/m 12,1 km/h (2 Bft) W-SW 244 0 min 0 W/m 2,9 C 29,0 km/h (5 Bft)
17.02.2020 23:10 6,9 C 59 % 1015,9 hPa 0,0 l/m 12,5 km/h (3 Bft) SW 230 0 min 0 W/m 2,7 C 32,2 km/h (5 Bft)
17.02.2020 23:00 6,9 C 60 % 1015,8 hPa 0,0 l/m 11,4 km/h (2 Bft) SW 227 0 min 0 W/m 3,3 C 29,0 km/h (5 Bft)
17.02.2020 22:50 6,9 C 60 % 1015,8 hPa 0,0 l/m 10,8 km/h (2 Bft) W-SW 242 0 min 0 W/m 3,7 C 27,4 km/h (4 Bft)
17.02.2020 22:40 7,0 C 60 % 1015,8 hPa 0,0 l/m 10,7 km/h (2 Bft) SW 229 0 min 0 W/m 3,8 C 24,1 km/h (4 Bft)
17.02.2020 22:30 6,8 C 61 % 1015,6 hPa 0,0 l/m 7,9 km/h (2 Bft) S-SW 209 0 min 0 W/m 5,6 C 22,5 km/h (4 Bft)
17.02.2020 22:20 6,6 C 62 % 1015,5 hPa 0,0 l/m 5,9 km/h (2 Bft) SW 218 0 min 0 W/m 6,6 C 14,5 km/h (3 Bft)
17.02.2020 22:10 6,4 C 63 % 1015,6 hPa 0,0 l/m 6,5 km/h (2 Bft) W-SW 239 0 min 0 W/m 6,3 C 12,9 km/h (3 Bft)
17.02.2020 22:00 6,1 C 64 % 1015,6 hPa 0,0 l/m 3,9 km/h (1 Bft) SW 227 0 min 0 W/m 6,1 C 9,7 km/h (2 Bft)
17.02.2020 21:50 6,1 C 64 % 1015,6 hPa 0,0 l/m 4,0 km/h (1 Bft) W-SW 240 0 min 0 W/m 6,1 C 11,3 km/h (2 Bft)
17.02.2020 21:40 6,1 C 64 % 1015,6 hPa 0,0 l/m 5,7 km/h (1 Bft) SW 233 0 min 0 W/m 6,1 C 12,9 km/h (3 Bft)
17.02.2020 21:30 6,1 C 63 % 1015,5 hPa 0,0 l/m 6,6 km/h (2 Bft) SW 221 0 min 0 W/m 6,0 C 17,7 km/h (3 Bft)
17.02.2020 21:20 6,1 C 64 % 1015,6 hPa 0,0 l/m 8,3 km/h (2 Bft) W-SW 256 0 min 0 W/m 4,5 C 17,7 km/h (3 Bft)
17.02.2020 21:10 6,3 C 63 % 1015,6 hPa 0,2 l/m 12,9 km/h (3 Bft) SW 223 0 min 0 W/m 1,7 C 24,1 km/h (4 Bft)
17.02.2020 21:00 7,0 C 60 % 1015,6 hPa 0,0 l/m 15,6 km/h (3 Bft) S 181 0 min 0 W/m 1,2 C 38,6 km/h (5 Bft)
17.02.2020 20:50 7,1 C 58 % 1015,5 hPa 0,0 l/m 13,5 km/h (3 Bft) SW 223 0 min 0 W/m 2,4 C 29,0 km/h (5 Bft)
17.02.2020 20:40 6,7 C 58 % 1015,2 hPa 0,0 l/m 9,0 km/h (2 Bft) SW 224 0 min 0 W/m 4,6 C 22,5 km/h (4 Bft)
17.02.2020 20:30 6,3 C 59 % 1015,1 hPa 0,0 l/m 6,3 km/h (2 Bft) W-SW 252 0 min 0 W/m 6,3 C 20,9 km/h (4 Bft)
17.02.2020 20:20 6,1 C 59 % 1015,3 hPa 0,0 l/m 5,3 km/h (1 Bft) SW 215 0 min 0 W/m 6,1 C 14,5 km/h (3 Bft)
17.02.2020 20:10 6,1 C 59 % 1015,3 hPa 0,0 l/m 6,9 km/h (2 Bft) SW 224 0 min 0 W/m 5,7 C 19,3 km/h (3 Bft)
17.02.2020 20:00 6,2 C 59 % 1015,3 hPa 0,0 l/m 6,9 km/h (2 Bft) S-SW 213 0 min 0 W/m 5,8 C 20,9 km/h (4 Bft)
17.02.2020 19:50 6,1 C 58 % 1015,2 hPa 0,0 l/m 5,1 km/h (1 Bft) W-SW 250 0 min 0 W/m 6,1 C 12,9 km/h (3 Bft)
17.02.2020 19:40 6,3 C 58 % 1015,4 hPa 0,0 l/m 8,5 km/h (2 Bft) SW 231 0 min 0 W/m 4,6 C 22,5 km/h (4 Bft)
17.02.2020 19:30 6,3 C 58 % 1015,4 hPa 0,0 l/m 8,6 km/h (2 Bft) SW 228 0 min 0 W/m 4,5 C 19,3 km/h (3 Bft)
17.02.2020 19:20 6,4 C 57 % 1015,1 hPa 0,0 l/m 10,1 km/h (2 Bft) SW 215 0 min 0 W/m 3,6 C 27,4 km/h (4 Bft)
17.02.2020 19:10 6,4 C 57 % 1015,0 hPa 0,0 l/m 11,6 km/h (2 Bft) S-SW 211 0 min 0 W/m 2,6 C 29,0 km/h (5 Bft)
17.02.2020 19:00 6,4 C 58 % 1014,9 hPa 0,0 l/m 9,7 km/h (2 Bft) SW 227 0 min 0 W/m 3,8 C 24,1 km/h (4 Bft)
17.02.2020 18:50 6,2 C 59 % 1015,0 hPa 0,0 l/m 7,6 km/h (2 Bft) SW 231 0 min 0 W/m 5,2 C 19,3 km/h (3 Bft)
17.02.2020 18:40 6,2 C 61 % 1014,6 hPa 0,0 l/m 6,8 km/h (2 Bft) SW 228 0 min 0 W/m 5,9 C 14,5 km/h (3 Bft)
17.02.2020 18:30 6,0 C 62 % 1014,5 hPa 0,0 l/m 6,0 km/h (2 Bft) S 184 0 min 0 W/m 6,0 C 17,7 km/h (3 Bft)
17.02.2020 18:20 5,9 C 64 % 1014,5 hPa 0,0 l/m 5,3 km/h (1 Bft) SW 214 0 min 0 W/m 5,9 C 11,3 km/h (2 Bft)
17.02.2020 18:10 5,8 C 65 % 1014,5 hPa 0,0 l/m 3,0 km/h (1 Bft) S-SW 208 0 min 0 W/m 5,8 C 11,3 km/h (2 Bft)
17.02.2020 18:00 5,8 C 65 % 1014,6 hPa 0,0 l/m 4,7 km/h (1 Bft) S-SW 207 0 min 0 W/m 5,8 C 14,5 km/h (3 Bft)
17.02.2020 17:50 5,8 C 66 % 1014,5 hPa 0,0 l/m 7,9 km/h (2 Bft) S-SW 207 0 min 0 W/m 4,5 C 20,9 km/h (4 Bft)
17.02.2020 17:40 5,7 C 66 % 1014,3 hPa 0,4 l/m 8,8 km/h (2 Bft) SW 226 0 min 5 W/m 3,7 C 20,9 km/h (4 Bft)
17.02.2020 17:30 5,7 C 66 % 1014,8 hPa 0,0 l/m 9,8 km/h (2 Bft) W-SW 242 0 min 0 W/m 3,0 C 27,4 km/h (4 Bft)
17.02.2020 17:20 5,8 C 65 % 1014,6 hPa 0,6 l/m 13,4 km/h (3 Bft) NO 34 0 min 0 W/m 0,9 C 33,8 km/h (5 Bft)
17.02.2020 17:10 6,4 C 63 % 1014,3 hPa 1,0 l/m 16,3 km/h (3 Bft) W-SW 238 0 min 0 W/m 0,2 C 38,6 km/h (5 Bft)
17.02.2020 17:00 9,9 C 47 % 1013,3 hPa 0,0 l/m 7,8 km/h (2 Bft) W-SW 243 0 min 0 W/m 8,9 C 19,3 km/h (3 Bft)
17.02.2020 16:50 10,2 C 46 % 1013,0 hPa 0,0 l/m 8,0 km/h (2 Bft) SW 221 0 min 26 W/m 9,1 C 20,9 km/h (4 Bft)
17.02.2020 16:40 10,6 C 44 % 1012,9 hPa 0,0 l/m 8,6 km/h (2 Bft) S-SW 200 0 min 54 W/m 9,1 C 17,7 km/h (3 Bft)
17.02.2020 16:30 10,9 C 43 % 1012,6 hPa 0,0 l/m 7,8 km/h (2 Bft) SW 233 0 min 105 W/m 9,9 C 20,9 km/h (4 Bft)
17.02.2020 16:20 10,9 C 42 % 1012,9 hPa 0,0 l/m 7,3 km/h (2 Bft) S 174 10 min 181 W/m 10,3 C 19,3 km/h (3 Bft)
17.02.2020 16:10 10,9 C 43 % 1013,1 hPa 0,0 l/m 8,0 km/h (2 Bft) SW 228 0 min 146 W/m 9,8 C 20,9 km/h (4 Bft)
17.02.2020 16:00 10,4 C 44 % 1013,1 hPa 0,0 l/m 6,9 km/h (2 Bft) S-SW 197 0 min 93 W/m 10,0 C 19,3 km/h (3 Bft)
17.02.2020 15:50 10,4 C 43 % 1013,3 hPa 0,0 l/m 10,9 km/h (2 Bft) S-SW 194 0 min 84 W/m 7,5 C 20,9 km/h (4 Bft)
17.02.2020 15:40 10,4 C 42 % 1013,3 hPa 0,0 l/m 9,4 km/h (2 Bft) SW 219 0 min 86 W/m 8,4 C 25,7 km/h (4 Bft)
17.02.2020 15:30 10,5 C 42 % 1013,4 hPa 0,0 l/m 11,2 km/h (2 Bft) W-SW 252 0 min 91 W/m 7,5 C 29,0 km/h (5 Bft)
17.02.2020 15:20 10,4 C 43 % 1013,5 hPa 0,0 l/m 10,1 km/h (2 Bft) S-SW 211 0 min 107 W/m 8,0 C 27,4 km/h (4 Bft)
17.02.2020 15:10 10,6 C 43 % 1013,4 hPa 0,0 l/m 12,6 km/h (3 Bft) W-NW 296 0 min 109 W/m 6,9 C 30,6 km/h (5 Bft)
17.02.2020 15:00 10,9 C 42 % 1013,4 hPa 0,0 l/m 13,3 km/h (3 Bft) SW 227 0 min 130 W/m 6,9 C 29,0 km/h (5 Bft)
17.02.2020 14:50 10,7 C 42 % 1013,4 hPa 0,0 l/m 14,7 km/h (3 Bft) W-SW 239 10 min 156 W/m 6,1 C 33,8 km/h (5 Bft)
17.02.2020 14:40 10,8 C 43 % 1013,5 hPa 0,0 l/m 15,0 km/h (3 Bft) W-SW 248 10 min 158 W/m 6,1 C 27,4 km/h (4 Bft)
17.02.2020 14:30 11,2 C 42 % 1013,6 hPa 0,0 l/m 11,9 km/h (2 Bft) W-SW 248 10 min 408 W/m 7,9 C 29,0 km/h (5 Bft)
17.02.2020 14:20 11,2 C 41 % 1013,5 hPa 0,0 l/m 11,1 km/h (2 Bft) SW 223 10 min 388 W/m 8,3 C 25,7 km/h (4 Bft)
17.02.2020 14:10 11,2 C 42 % 1013,4 hPa 0,0 l/m 10,7 km/h (2 Bft) SW 222 10 min 392 W/m 8,5 C 22,5 km/h (4 Bft)
17.02.2020 14:00 10,8 C 43 % 1013,5 hPa 0,0 l/m 13,2 km/h (3 Bft) S-SW 212 10 min 401 W/m 6,9 C 32,2 km/h (5 Bft)
_ Min-Zeit 02:20 14:20 16:30 - 18:10 - - - - 07:30 22:00
Minimum _ 4,8 C 41 % 1012,6 hPa - 3,0 km/h (1 Bft) - - - - -1,8 C 9,7 km/h (2 Bft)
_ Max-Zeit 14:40 02:30 11:30 17:10 07:30 - - 14:00 14:30 16:20 06:50
Maximum _ 11,4 C 67 % 1022,7 hPa 1,0 l/m 18,7 km/h
S-SW (3 Bft)
- - 10 min 408 W/m 10,3 C 41,8 km/h
W (6 Bft)
Durchschnitt _ 7,3 C 56 % 1017,3 hPa #4,0 l/m 12,0 km/h (2 Bft) SW - #1:20 h 119 W/m 3,5 C 27,3 km/h (4 Bft)